sensor_id;sensor_type;location;lat;lon;timestamp;pressure;altitude;pressure_sealevel;temperature;humidity
52745;BME280;38637;49.984;20.426;2023-02-28T00:01:12;100571.78;;;0.90;63.90
52745;BME280;38637;49.984;20.426;2023-02-28T00:03:38;100573.78;;;0.88;63.54
52745;BME280;38637;49.984;20.426;2023-02-28T00:06:07;100575.16;;;0.84;64.06
52745;BME280;38637;49.984;20.426;2023-02-28T00:08:34;100576.31;;;0.81;64.18
52745;BME280;38637;49.984;20.426;2023-02-28T00:11:09;100578.31;;;0.79;64.07
52745;BME280;38637;49.984;20.426;2023-02-28T00:13:37;100591.13;;;0.77;64.56
52745;BME280;38637;49.984;20.426;2023-02-28T00:16:08;100588.59;;;0.76;64.57
52745;BME280;38637;49.984;20.426;2023-02-28T00:18:34;100588.09;;;0.72;64.76
52745;BME280;38637;49.984;20.426;2023-02-28T00:20:59;100577.66;;;0.69;64.90
52745;BME280;38637;49.984;20.426;2023-02-28T00:23:26;100585.72;;;0.69;64.91
52745;BME280;38637;49.984;20.426;2023-02-28T00:25:52;100594.97;;;0.75;64.71
52745;BME280;38637;49.984;20.426;2023-02-28T00:28:17;100581.38;;;0.68;64.79
52745;BME280;38637;49.984;20.426;2023-02-28T00:30:43;100593.97;;;0.76;64.50
52745;BME280;38637;49.984;20.426;2023-02-28T00:33:09;100590.63;;;0.74;64.58
52745;BME280;38637;49.984;20.426;2023-02-28T00:35:34;100590.41;;;0.67;64.77
52745;BME280;38637;49.984;20.426;2023-02-28T00:38:00;100587.41;;;0.62;65.56
52745;BME280;38637;49.984;20.426;2023-02-28T00:40:25;100591.59;;;0.56;65.30
52745;BME280;38637;49.984;20.426;2023-02-28T00:42:50;100582.22;;;0.52;65.29
52745;BME280;38637;49.984;20.426;2023-02-28T00:45:16;100583.72;;;0.47;65.91
52745;BME280;38637;49.984;20.426;2023-02-28T00:47:41;100588.03;;;0.39;66.31
52745;BME280;38637;49.984;20.426;2023-02-28T00:50:07;100591.38;;;0.33;66.42
52745;BME280;38637;49.984;20.426;2023-02-28T00:52:34;100581.16;;;0.29;66.57
52745;BME280;38637;49.984;20.426;2023-02-28T00:54:59;100579.13;;;0.22;66.60
52745;BME280;38637;49.984;20.426;2023-02-28T00:57:24;100591.72;;;0.22;66.42
52745;BME280;38637;49.984;20.426;2023-02-28T00:59:50;100586.81;;;0.17;67.40
52745;BME280;38637;49.984;20.426;2023-02-28T01:02:15;100583.50;;;0.15;67.51
52745;BME280;38637;49.984;20.426;2023-02-28T01:04:40;100588.50;;;0.10;67.54
52745;BME280;38637;49.984;20.426;2023-02-28T01:07:06;100596.03;;;0.07;68.18
52745;BME280;38637;49.984;20.426;2023-02-28T01:09:31;100587.47;;;0.03;68.30
52745;BME280;38637;49.984;20.426;2023-02-28T01:11:56;100593.84;;;0.02;68.59
52745;BME280;38637;49.984;20.426;2023-02-28T01:14:22;100591.81;;;-0.04;68.63
52745;BME280;38637;49.984;20.426;2023-02-28T01:16:47;100590.47;;;-0.08;69.03
52745;BME280;38637;49.984;20.426;2023-02-28T01:19:12;100592.13;;;-0.07;69.21
52745;BME280;38637;49.984;20.426;2023-02-28T01:21:38;100590.94;;;-0.13;68.91
52745;BME280;38637;49.984;20.426;2023-02-28T01:24:04;100578.66;;;-0.24;69.32
52745;BME280;38637;49.984;20.426;2023-02-28T01:26:29;100598.47;;;-0.16;69.91
52745;BME280;38637;49.984;20.426;2023-02-28T01:28:55;100591.91;;;-0.22;69.46
52745;BME280;38637;49.984;20.426;2023-02-28T01:31:22;100605.63;;;-0.25;69.66
52745;BME280;38637;49.984;20.426;2023-02-28T01:33:48;100602.63;;;-0.30;70.15
52745;BME280;38637;49.984;20.426;2023-02-28T01:36:19;100606.97;;;-0.29;70.54
52745;BME280;38637;49.984;20.426;2023-02-28T01:38:44;100604.75;;;-0.34;70.84
52745;BME280;38637;49.984;20.426;2023-02-28T01:41:18;100601.94;;;-0.32;71.07
52745;BME280;38637;49.984;20.426;2023-02-28T01:46:11;100604.13;;;-0.28;71.20
52745;BME280;38637;49.984;20.426;2023-02-28T01:48:46;100605.31;;;-0.30;71.65
52745;BME280;38637;49.984;20.426;2023-02-28T01:51:17;100598.22;;;-0.31;71.67
52745;BME280;38637;49.984;20.426;2023-02-28T01:53:48;100601.41;;;-0.36;71.95
52745;BME280;38637;49.984;20.426;2023-02-28T01:56:18;100597.19;;;-0.38;71.40
52745;BME280;38637;49.984;20.426;2023-02-28T01:58:47;100601.03;;;-0.41;71.55
52745;BME280;38637;49.984;20.426;2023-02-28T02:01:13;100601.69;;;-0.47;71.20
52745;BME280;38637;49.984;20.426;2023-02-28T02:03:48;100597.47;;;-0.50;71.47
52745;BME280;38637;49.984;20.426;2023-02-28T02:06:24;100603.16;;;-0.53;71.88
52745;BME280;38637;49.984;20.426;2023-02-28T02:08:50;100602.63;;;-0.56;71.83
52745;BME280;38637;49.984;20.426;2023-02-28T02:11:18;100594.44;;;-0.55;72.08
52745;BME280;38637;49.984;20.426;2023-02-28T02:33:26;100585.50;;;-0.89;73.67
52745;BME280;38637;49.984;20.426;2023-02-28T02:36:03;100576.03;;;-1.02;73.57
52745;BME280;38637;49.984;20.426;2023-02-28T02:38:47;100570.66;;;-1.02;73.44
52745;BME280;38637;49.984;20.426;2023-02-28T02:41:22;100570.31;;;-1.07;73.69
52745;BME280;38637;49.984;20.426;2023-02-28T02:43:56;100572.00;;;-1.06;73.85
52745;BME280;38637;49.984;20.426;2023-02-28T02:46:30;100568.63;;;-1.08;73.98
52745;BME280;38637;49.984;20.426;2023-02-28T02:49:00;100561.50;;;-1.17;73.74
52745;BME280;38637;49.984;20.426;2023-02-28T02:51:27;100568.72;;;-1.18;73.65
52745;BME280;38637;49.984;20.426;2023-02-28T02:54:05;100574.56;;;-1.22;73.80
52745;BME280;38637;49.984;20.426;2023-02-28T02:56:33;100571.19;;;-1.24;74.11
52745;BME280;38637;49.984;20.426;2023-02-28T02:59:03;100559.78;;;-1.26;74.40
52745;BME280;38637;49.984;20.426;2023-02-28T03:01:31;100569.34;;;-1.24;74.39
52745;BME280;38637;49.984;20.426;2023-02-28T03:04:00;100572.19;;;-1.25;73.94
52745;BME280;38637;49.984;20.426;2023-02-28T03:06:27;100577.56;;;-1.25;74.29
52745;BME280;38637;49.984;20.426;2023-02-28T03:08:52;100564.59;;;-1.30;73.86
52745;BME280;38637;49.984;20.426;2023-02-28T03:11:18;100572.13;;;-1.33;74.29
52745;BME280;38637;49.984;20.426;2023-02-28T03:13:52;100571.19;;;-1.42;74.81
52745;BME280;38637;49.984;20.426;2023-02-28T03:19:38;100571.13;;;-1.50;74.59
52745;BME280;38637;49.984;20.426;2023-02-28T03:25:23;100577.19;;;-1.48;74.84
52745;BME280;38637;49.984;20.426;2023-02-28T03:27:55;100577.03;;;-1.47;74.80
52745;BME280;38637;49.984;20.426;2023-02-28T03:30:33;100582.69;;;-1.50;74.93
52745;BME280;38637;49.984;20.426;2023-02-28T03:35:38;100600.00;;;-1.62;74.50
52745;BME280;38637;49.984;20.426;2023-02-28T03:38:11;100594.38;;;-1.69;74.06
52745;BME280;38637;49.984;20.426;2023-02-28T03:40:43;100598.91;;;-1.69;74.29
52745;BME280;38637;49.984;20.426;2023-02-28T03:43:16;100595.25;;;-1.68;74.71
52745;BME280;38637;49.984;20.426;2023-02-28T03:45:43;100596.38;;;-1.71;74.25
52745;BME280;38637;49.984;20.426;2023-02-28T03:48:12;100599.38;;;-1.74;74.48
52745;BME280;38637;49.984;20.426;2023-02-28T03:50:44;100606.88;;;-1.77;74.81
52745;BME280;38637;49.984;20.426;2023-02-28T03:53:22;100594.63;;;-1.80;74.57
52745;BME280;38637;49.984;20.426;2023-02-28T03:55:53;100599.28;;;-1.82;74.36
52745;BME280;38637;49.984;20.426;2023-02-28T04:00:56;100606.47;;;-1.82;74.25
52745;BME280;38637;49.984;20.426;2023-02-28T04:03:23;100604.63;;;-1.82;74.84
52745;BME280;38637;49.984;20.426;2023-02-28T04:05:53;100612.53;;;-1.80;75.23
52745;BME280;38637;49.984;20.426;2023-02-28T04:08:20;100608.84;;;-1.79;74.56
52745;BME280;38637;49.984;20.426;2023-02-28T04:10:51;100609.16;;;-1.82;74.68
52745;BME280;38637;49.984;20.426;2023-02-28T04:13:18;100608.44;;;-1.85;75.24
52745;BME280;38637;49.984;20.426;2023-02-28T04:15:43;100622.44;;;-1.91;75.12
52745;BME280;38637;49.984;20.426;2023-02-28T04:18:09;100610.88;;;-1.91;75.82
52745;BME280;38637;49.984;20.426;2023-02-28T04:20:34;100621.66;;;-2.01;75.98
52745;BME280;38637;49.984;20.426;2023-02-28T04:22:59;100620.41;;;-2.06;76.24
52745;BME280;38637;49.984;20.426;2023-02-28T04:25:25;100615.53;;;-2.11;77.11
52745;BME280;38637;49.984;20.426;2023-02-28T04:27:50;100604.81;;;-2.11;76.84
52745;BME280;38637;49.984;20.426;2023-02-28T04:30:15;100617.03;;;-2.09;76.91
52745;BME280;38637;49.984;20.426;2023-02-28T04:32:41;100608.16;;;-2.09;76.31
52745;BME280;38637;49.984;20.426;2023-02-28T04:35:07;100610.31;;;-2.13;76.59
52745;BME280;38637;49.984;20.426;2023-02-28T04:37:32;100612.56;;;-2.08;76.28
52745;BME280;38637;49.984;20.426;2023-02-28T04:40:00;100621.25;;;-2.06;75.67
52745;BME280;38637;49.984;20.426;2023-02-28T04:42:25;100622.38;;;-2.09;75.88
52745;BME280;38637;49.984;20.426;2023-02-28T04:44:50;100620.16;;;-2.13;75.90
52745;BME280;38637;49.984;20.426;2023-02-28T04:47:16;100621.00;;;-2.13;75.47
52745;BME280;38637;49.984;20.426;2023-02-28T04:49:41;100622.16;;;-2.15;76.23
52745;BME280;38637;49.984;20.426;2023-02-28T04:52:06;100628.50;;;-2.16;76.18
52745;BME280;38637;49.984;20.426;2023-02-28T04:54:32;100621.59;;;-2.19;76.03
52745;BME280;38637;49.984;20.426;2023-02-28T04:56:57;100624.03;;;-2.25;75.04
52745;BME280;38637;49.984;20.426;2023-02-28T04:59:23;100631.50;;;-2.29;75.86
52745;BME280;38637;49.984;20.426;2023-02-28T05:01:49;100629.97;;;-2.32;75.90
52745;BME280;38637;49.984;20.426;2023-02-28T05:04:14;100637.44;;;-2.35;75.70
52745;BME280;38637;49.984;20.426;2023-02-28T05:06:40;100627.72;;;-2.36;75.46
52745;BME280;38637;49.984;20.426;2023-02-28T05:09:05;100635.06;;;-2.38;75.44
52745;BME280;38637;49.984;20.426;2023-02-28T05:11:33;100629.19;;;-2.42;76.26
52745;BME280;38637;49.984;20.426;2023-02-28T05:14:07;100633.81;;;-2.44;76.05
52745;BME280;38637;49.984;20.426;2023-02-28T05:16:34;100639.00;;;-2.42;76.35
52745;BME280;38637;49.984;20.426;2023-02-28T05:18:59;100634.53;;;-2.42;77.33
52745;BME280;38637;49.984;20.426;2023-02-28T05:23:59;100639.44;;;-2.37;76.51
52745;BME280;38637;49.984;20.426;2023-02-28T05:26:25;100639.44;;;-2.37;77.26
52745;BME280;38637;49.984;20.426;2023-02-28T05:28:51;100640.25;;;-2.37;76.50
52745;BME280;38637;49.984;20.426;2023-02-28T05:31:16;100639.13;;;-2.34;76.22
52745;BME280;38637;49.984;20.426;2023-02-28T05:33:42;100650.97;;;-2.37;76.49
52745;BME280;38637;49.984;20.426;2023-02-28T05:36:07;100654.94;;;-2.41;76.21
52745;BME280;38637;49.984;20.426;2023-02-28T05:38:33;100666.03;;;-2.45;75.25
52745;BME280;38637;49.984;20.426;2023-02-28T05:40:58;100669.97;;;-2.40;75.61
52745;BME280;38637;49.984;20.426;2023-02-28T05:43:24;100669.69;;;-2.37;75.95
52745;BME280;38637;49.984;20.426;2023-02-28T05:45:49;100666.03;;;-2.36;75.50
52745;BME280;38637;49.984;20.426;2023-02-28T05:48:14;100665.34;;;-2.38;75.65
52745;BME280;38637;49.984;20.426;2023-02-28T05:50:40;100682.34;;;-2.29;75.45
52745;BME280;38637;49.984;20.426;2023-02-28T05:53:06;100685.28;;;-2.22;75.50
52745;BME280;38637;49.984;20.426;2023-02-28T05:55:31;100687.38;;;-2.16;75.71
52745;BME280;38637;49.984;20.426;2023-02-28T05:57:56;100687.06;;;-2.13;75.37
52745;BME280;38637;49.984;20.426;2023-02-28T06:00:22;100687.59;;;-2.10;75.53
52745;BME280;38637;49.984;20.426;2023-02-28T06:02:47;100687.72;;;-2.01;75.46
52745;BME280;38637;49.984;20.426;2023-02-28T06:05:16;100691.50;;;-1.94;76.09
52745;BME280;38637;49.984;20.426;2023-02-28T06:07:42;100691.34;;;-1.93;75.26
52745;BME280;38637;49.984;20.426;2023-02-28T06:10:09;100697.63;;;-1.84;76.07
52745;BME280;38637;49.984;20.426;2023-02-28T06:12:34;100697.03;;;-1.78;75.43
52745;BME280;38637;49.984;20.426;2023-02-28T06:14:59;100706.00;;;-1.69;76.03
52745;BME280;38637;49.984;20.426;2023-02-28T06:17:25;100704.44;;;-1.62;75.13
52745;BME280;38637;49.984;20.426;2023-02-28T06:19:50;100712.19;;;-1.59;75.67
52745;BME280;38637;49.984;20.426;2023-02-28T06:22:15;100710.03;;;-1.55;75.82
52745;BME280;38637;49.984;20.426;2023-02-28T06:24:41;100713.38;;;-1.53;75.27
52745;BME280;38637;49.984;20.426;2023-02-28T06:27:06;100702.25;;;-1.49;75.56
52745;BME280;38637;49.984;20.426;2023-02-28T06:29:33;100708.28;;;-1.47;75.52
52745;BME280;38637;49.984;20.426;2023-02-28T06:31:58;100722.22;;;-1.43;74.87
52745;BME280;38637;49.984;20.426;2023-02-28T06:34:23;100717.53;;;-1.41;74.94
52745;BME280;38637;49.984;20.426;2023-02-28T06:36:51;100713.59;;;-1.37;74.75
52745;BME280;38637;49.984;20.426;2023-02-28T06:39:17;100713.28;;;-1.34;74.70
52745;BME280;38637;49.984;20.426;2023-02-28T06:41:42;100718.72;;;-1.26;74.75
52745;BME280;38637;49.984;20.426;2023-02-28T06:44:15;100717.56;;;-1.23;74.74
52745;BME280;38637;49.984;20.426;2023-02-28T06:46:43;100717.13;;;-1.19;74.63
52745;BME280;38637;49.984;20.426;2023-02-28T06:49:09;100714.97;;;-1.15;75.36
52745;BME280;38637;49.984;20.426;2023-02-28T06:51:40;100707.94;;;-1.16;75.21
52745;BME280;38637;49.984;20.426;2023-02-28T06:54:07;100720.56;;;-1.08;74.55
52745;BME280;38637;49.984;20.426;2023-02-28T06:56:34;100714.91;;;-1.05;74.38
52745;BME280;38637;49.984;20.426;2023-02-28T06:59:00;100726.31;;;-1.03;74.59
52745;BME280;38637;49.984;20.426;2023-02-28T07:01:26;100725.63;;;-1.05;74.68
52745;BME280;38637;49.984;20.426;2023-02-28T07:03:53;100730.44;;;-1.09;74.39
52745;BME280;38637;49.984;20.426;2023-02-28T07:06:20;100723.09;;;-1.07;74.23
52745;BME280;38637;49.984;20.426;2023-02-28T07:08:48;100708.00;;;-1.08;74.81
52745;BME280;38637;49.984;20.426;2023-02-28T07:11:13;100737.56;;;-1.00;74.21
52745;BME280;38637;49.984;20.426;2023-02-28T07:13:39;100735.97;;;-0.93;74.29
52745;BME280;38637;49.984;20.426;2023-02-28T07:16:06;100732.34;;;-0.83;74.56
52745;BME280;38637;49.984;20.426;2023-02-28T07:18:32;100736.97;;;-0.76;74.39
52745;BME280;38637;49.984;20.426;2023-02-28T07:20:58;100738.41;;;-0.63;73.93
52745;BME280;38637;49.984;20.426;2023-02-28T07:23:23;100736.47;;;-0.53;74.72
52745;BME280;38637;49.984;20.426;2023-02-28T07:25:50;100739.88;;;-0.43;73.79
52745;BME280;38637;49.984;20.426;2023-02-28T07:28:15;100741.31;;;-0.31;74.11
52745;BME280;38637;49.984;20.426;2023-02-28T07:30:41;100734.16;;;-0.22;73.34
52745;BME280;38637;49.984;20.426;2023-02-28T07:33:07;100730.06;;;-0.08;73.31
52745;BME280;38637;49.984;20.426;2023-02-28T07:35:32;100738.69;;;0.04;73.03
52745;BME280;38637;49.984;20.426;2023-02-28T07:37:58;100733.72;;;0.17;72.83
52745;BME280;38637;49.984;20.426;2023-02-28T07:40:24;100742.16;;;0.22;72.21
52745;BME280;38637;49.984;20.426;2023-02-28T07:42:50;100734.56;;;0.17;72.25
52745;BME280;38637;49.984;20.426;2023-02-28T07:45:15;100738.81;;;0.28;71.27
52745;BME280;38637;49.984;20.426;2023-02-28T07:47:41;100735.69;;;0.41;70.94
52745;BME280;38637;49.984;20.426;2023-02-28T07:50:09;100735.25;;;0.62;71.08
52745;BME280;38637;49.984;20.426;2023-02-28T07:52:37;100725.91;;;0.90;70.56
52745;BME280;38637;49.984;20.426;2023-02-28T07:55:03;100713.00;;;1.10;68.74
52745;BME280;38637;49.984;20.426;2023-02-28T07:57:29;100734.00;;;1.40;67.94
52745;BME280;38637;49.984;20.426;2023-02-28T07:59:55;100729.78;;;1.61;67.15
52745;BME280;38637;49.984;20.426;2023-02-28T08:02:20;100729.25;;;1.82;66.06
52745;BME280;38637;49.984;20.426;2023-02-28T08:04:45;100728.53;;;2.05;64.32
52745;BME280;38637;49.984;20.426;2023-02-28T08:07:13;100722.25;;;2.21;62.19
52745;BME280;38637;49.984;20.426;2023-02-28T08:09:39;100709.06;;;2.34;61.14
52745;BME280;38637;49.984;20.426;2023-02-28T08:12:05;100705.63;;;2.48;57.69
52745;BME280;38637;49.984;20.426;2023-02-28T08:14:31;100721.03;;;2.63;56.03
52745;BME280;38637;49.984;20.426;2023-02-28T08:16:56;100679.16;;;2.52;56.79
52745;BME280;38637;49.984;20.426;2023-02-28T08:19:21;100719.00;;;2.96;56.23
52745;BME280;38637;49.984;20.426;2023-02-28T08:21:47;100724.72;;;3.01;55.46
52745;BME280;38637;49.984;20.426;2023-02-28T08:24:12;100716.72;;;2.85;53.60
52745;BME280;38637;49.984;20.426;2023-02-28T08:26:37;100718.16;;;2.72;54.41
52745;BME280;38637;49.984;20.426;2023-02-28T08:29:02;100721.13;;;2.78;54.65
52745;BME280;38637;49.984;20.426;2023-02-28T08:31:28;100721.47;;;2.83;53.37
52745;BME280;38637;49.984;20.426;2023-02-28T08:33:53;100715.38;;;2.81;52.94
52745;BME280;38637;49.984;20.426;2023-02-28T08:36:21;100719.25;;;2.86;52.68
52745;BME280;38637;49.984;20.426;2023-02-28T08:38:48;100719.59;;;2.83;51.62
52745;BME280;38637;49.984;20.426;2023-02-28T08:41:14;100718.81;;;2.74;50.75
52745;BME280;38637;49.984;20.426;2023-02-28T08:43:40;100727.91;;;2.42;50.35
52745;BME280;38637;49.984;20.426;2023-02-28T08:46:06;100724.00;;;2.45;51.32
52745;BME280;38637;49.984;20.426;2023-02-28T08:48:33;100716.25;;;2.42;50.58
52745;BME280;38637;49.984;20.426;2023-02-28T08:51:05;100720.66;;;2.43;50.46
52745;BME280;38637;49.984;20.426;2023-02-28T08:53:31;100722.28;;;2.52;50.57
52745;BME280;38637;49.984;20.426;2023-02-28T08:56:02;100717.72;;;2.61;51.01
52745;BME280;38637;49.984;20.426;2023-02-28T08:58:28;100718.88;;;2.66;51.11
52745;BME280;38637;49.984;20.426;2023-02-28T09:00:54;100715.25;;;2.74;50.96
52745;BME280;38637;49.984;20.426;2023-02-28T09:03:20;100728.53;;;2.84;50.89
52745;BME280;38637;49.984;20.426;2023-02-28T09:06:00;100720.09;;;2.56;50.89
52745;BME280;38637;49.984;20.426;2023-02-28T09:08:28;100723.72;;;2.32;51.45
52745;BME280;38637;49.984;20.426;2023-02-28T09:10:54;100721.47;;;2.51;52.01
52745;BME280;38637;49.984;20.426;2023-02-28T09:13:22;100721.81;;;2.48;50.98
52745;BME280;38637;49.984;20.426;2023-02-28T09:15:48;100719.63;;;2.44;51.36
52745;BME280;38637;49.984;20.426;2023-02-28T09:18:14;100717.59;;;2.46;51.89
52745;BME280;38637;49.984;20.426;2023-02-28T09:20:40;100701.84;;;2.26;51.64
52745;BME280;38637;49.984;20.426;2023-02-28T09:23:09;100715.63;;;2.32;51.99
52745;BME280;38637;49.984;20.426;2023-02-28T09:25:36;100719.22;;;2.24;51.21
52745;BME280;38637;49.984;20.426;2023-02-28T09:28:01;100723.41;;;2.26;51.41
52745;BME280;38637;49.984;20.426;2023-02-28T09:30:27;100710.59;;;2.28;51.36
52745;BME280;38637;49.984;20.426;2023-02-28T09:32:53;100720.34;;;2.38;51.67
52745;BME280;38637;49.984;20.426;2023-02-28T09:35:19;100719.13;;;2.48;50.62
52745;BME280;38637;49.984;20.426;2023-02-28T09:37:46;100719.88;;;2.57;51.04
52745;BME280;38637;49.984;20.426;2023-02-28T09:40:12;100712.94;;;2.71;50.42
52745;BME280;38637;49.984;20.426;2023-02-28T09:42:38;100709.13;;;2.88;50.53
52745;BME280;38637;49.984;20.426;2023-02-28T09:45:24;100718.56;;;3.15;49.92
52745;BME280;38637;49.984;20.426;2023-02-28T09:47:54;100709.94;;;3.35;50.27
52745;BME280;38637;49.984;20.426;2023-02-28T09:50:35;100712.66;;;3.35;48.06
52745;BME280;38637;49.984;20.426;2023-02-28T09:53:13;100714.22;;;3.06;47.49
52745;BME280;38637;49.984;20.426;2023-02-28T09:55:48;100711.44;;;3.14;48.73
52745;BME280;38637;49.984;20.426;2023-02-28T09:58:23;100703.06;;;3.09;47.71
52745;BME280;38637;49.984;20.426;2023-02-28T10:01:00;100710.19;;;3.02;47.35
52745;BME280;38637;49.984;20.426;2023-02-28T10:03:37;100710.19;;;3.02;47.35
52745;BME280;38637;49.984;20.426;2023-02-28T10:06:18;100696.97;;;2.84;47.23
52745;BME280;38637;49.984;20.426;2023-02-28T10:11:19;100702.84;;;2.65;49.18
52745;BME280;38637;49.984;20.426;2023-02-28T10:16:14;100706.06;;;2.60;48.99
52745;BME280;38637;49.984;20.426;2023-02-28T10:18:47;100689.66;;;2.39;50.12
52745;BME280;38637;49.984;20.426;2023-02-28T10:21:21;100700.41;;;2.47;49.58
52745;BME280;38637;49.984;20.426;2023-02-28T10:23:48;100708.88;;;2.36;49.77
52745;BME280;38637;49.984;20.426;2023-02-28T10:26:16;100701.78;;;2.43;49.60
52745;BME280;38637;49.984;20.426;2023-02-28T10:28:42;100690.09;;;2.50;49.87
52745;BME280;38637;49.984;20.426;2023-02-28T10:31:15;100691.56;;;2.61;50.05
52745;BME280;38637;49.984;20.426;2023-02-28T10:33:41;100688.84;;;2.69;49.98
52745;BME280;38637;49.984;20.426;2023-02-28T10:36:12;100690.03;;;2.67;49.17
52745;BME280;38637;49.984;20.426;2023-02-28T10:38:39;100690.44;;;2.56;49.67
52745;BME280;38637;49.984;20.426;2023-02-28T10:41:13;100684.06;;;2.48;49.81
52745;BME280;38637;49.984;20.426;2023-02-28T10:43:41;100680.16;;;2.51;49.98
52745;BME280;38637;49.984;20.426;2023-02-28T10:49:00;100665.00;;;2.50;50.24
52745;BME280;38637;49.984;20.426;2023-02-28T10:51:34;100676.69;;;2.42;49.41
52745;BME280;38637;49.984;20.426;2023-02-28T10:54:02;100677.19;;;2.38;49.77
52745;BME280;38637;49.984;20.426;2023-02-28T10:56:28;100669.94;;;2.38;49.76
52745;BME280;38637;49.984;20.426;2023-02-28T11:03:55;100663.91;;;2.36;50.10
52745;BME280;38637;49.984;20.426;2023-02-28T11:06:25;100661.34;;;2.43;50.17
52745;BME280;38637;49.984;20.426;2023-02-28T11:08:54;100645.69;;;2.38;50.42
52745;BME280;38637;49.984;20.426;2023-02-28T11:11:20;100655.06;;;2.50;50.45
52745;BME280;38637;49.984;20.426;2023-02-28T11:13:51;100647.63;;;2.52;50.48
52745;BME280;38637;49.984;20.426;2023-02-28T11:16:18;100655.34;;;2.64;50.43
52745;BME280;38637;49.984;20.426;2023-02-28T11:21:26;100645.16;;;2.74;50.29
52745;BME280;38637;49.984;20.426;2023-02-28T11:24:00;100638.66;;;2.83;51.16
52745;BME280;38637;49.984;20.426;2023-02-28T11:26:56;100640.69;;;2.81;50.49
52745;BME280;38637;49.984;20.426;2023-02-28T11:29:23;100640.19;;;2.86;50.27
52745;BME280;38637;49.984;20.426;2023-02-28T11:32:18;100641.31;;;2.91;50.43
52745;BME280;38637;49.984;20.426;2023-02-28T11:34:44;100645.22;;;2.89;50.08
52745;BME280;38637;49.984;20.426;2023-02-28T11:37:28;100637.47;;;2.86;50.06
52745;BME280;38637;49.984;20.426;2023-02-28T11:39:54;100648.97;;;2.80;49.71
52745;BME280;38637;49.984;20.426;2023-02-28T11:45:55;100630.25;;;2.78;49.83
52745;BME280;38637;49.984;20.426;2023-02-28T11:48:33;100620.97;;;2.81;49.84
52745;BME280;38637;49.984;20.426;2023-02-28T11:51:15;100626.69;;;2.86;50.07
52745;BME280;38637;49.984;20.426;2023-02-28T11:53:59;100627.34;;;2.88;49.78
52745;BME280;38637;49.984;20.426;2023-02-28T11:56:31;100624.56;;;2.96;50.53
52745;BME280;38637;49.984;20.426;2023-02-28T12:02:24;100623.47;;;3.05;50.42
52745;BME280;38637;49.984;20.426;2023-02-28T12:11:14;100611.53;;;3.22;50.68
52745;BME280;38637;49.984;20.426;2023-02-28T12:16:27;100616.28;;;3.35;51.75
52745;BME280;38637;49.984;20.426;2023-02-28T12:21:43;100609.22;;;3.34;50.10
52745;BME280;38637;49.984;20.426;2023-02-28T12:27:00;100605.88;;;3.32;50.77
52745;BME280;38637;49.984;20.426;2023-02-28T12:29:34;100612.38;;;3.23;50.54
52745;BME280;38637;49.984;20.426;2023-02-28T12:32:27;100613.50;;;3.29;50.13
52745;BME280;38637;49.984;20.426;2023-02-28T12:34:59;100608.25;;;3.27;50.13
52745;BME280;38637;49.984;20.426;2023-02-28T12:37:34;100608.75;;;3.31;50.70
52745;BME280;38637;49.984;20.426;2023-02-28T12:40:05;100615.16;;;3.30;51.58
52745;BME280;38637;49.984;20.426;2023-02-28T12:42:34;100607.72;;;3.32;51.55
52745;BME280;38637;49.984;20.426;2023-02-28T12:45:08;100611.56;;;3.37;51.76
52745;BME280;38637;49.984;20.426;2023-02-28T12:47:38;100612.31;;;3.46;51.64
52745;BME280;38637;49.984;20.426;2023-02-28T12:50:07;100626.91;;;3.52;51.02
52745;BME280;38637;49.984;20.426;2023-02-28T12:52:51;100611.28;;;3.47;49.34
52745;BME280;38637;49.984;20.426;2023-02-28T12:55:58;100619.75;;;3.44;49.74
52745;BME280;38637;49.984;20.426;2023-02-28T12:58:35;100603.19;;;3.47;49.91
52745;BME280;38637;49.984;20.426;2023-02-28T13:07:07;100604.78;;;3.56;49.60
52745;BME280;38637;49.984;20.426;2023-02-28T13:09:24;100604.19;;;3.61;49.95
52745;BME280;38637;49.984;20.426;2023-02-28T13:11:51;100603.56;;;3.59;50.88
52745;BME280;38637;49.984;20.426;2023-02-28T13:19:34;100592.75;;;3.44;52.04
52745;BME280;38637;49.984;20.426;2023-02-28T13:22:01;100586.53;;;3.43;52.41
52745;BME280;38637;49.984;20.426;2023-02-28T13:29:38;100574.41;;;3.39;52.38
52745;BME280;38637;49.984;20.426;2023-02-28T13:47:36;100563.97;;;3.36;53.14
52745;BME280;38637;49.984;20.426;2023-02-28T13:58:53;100555.16;;;3.28;54.00
52745;BME280;38637;49.984;20.426;2023-02-28T14:04:54;100553.72;;;3.17;53.74
52745;BME280;38637;49.984;20.426;2023-02-28T14:07:31;100547.09;;;3.05;53.92
52745;BME280;38637;49.984;20.426;2023-02-28T14:10:04;100546.06;;;3.06;54.51
52745;BME280;38637;49.984;20.426;2023-02-28T14:18:03;100548.03;;;3.12;54.41
52745;BME280;38637;49.984;20.426;2023-02-28T14:20:32;100537.97;;;3.06;54.11
52745;BME280;38637;49.984;20.426;2023-02-28T14:23:10;100544.97;;;3.15;55.30
52745;BME280;38637;49.984;20.426;2023-02-28T14:25:59;100543.28;;;3.14;54.16
52745;BME280;38637;49.984;20.426;2023-02-28T14:28:48;100543.56;;;3.04;55.08
52745;BME280;38637;49.984;20.426;2023-02-28T14:31:37;100550.53;;;2.98;54.79
52745;BME280;38637;49.984;20.426;2023-02-28T14:36:38;100543.16;;;2.92;54.94
52745;BME280;38637;49.984;20.426;2023-02-28T14:39:25;100547.91;;;2.90;55.11
52745;BME280;38637;49.984;20.426;2023-02-28T14:41:51;100555.91;;;2.98;55.72
52745;BME280;38637;49.984;20.426;2023-02-28T14:44:22;100548.66;;;2.99;55.59
52745;BME280;38637;49.984;20.426;2023-02-28T14:46:50;100548.97;;;3.04;55.38
52745;BME280;38637;49.984;20.426;2023-02-28T14:49:28;100545.78;;;3.01;55.69
52745;BME280;38637;49.984;20.426;2023-02-28T14:54:34;100543.00;;;2.94;55.89
52745;BME280;38637;49.984;20.426;2023-02-28T14:57:00;100545.50;;;2.95;55.79
52745;BME280;38637;49.984;20.426;2023-02-28T14:59:31;100549.22;;;2.94;55.57
52745;BME280;38637;49.984;20.426;2023-02-28T15:02:16;100552.09;;;2.93;55.50